Terminal Aerodrome Forecast
Issued by NWS

Home | Current Version | Previous Version | Text Only | Print | Product List | Glossary On
Versions: 1 2 3 4 5 6 7 8 9 10 11 12 13 14 15 16 17 18 19 20 21 22 23 24 25 26 27 28 29
932
FTUS46 KSEW 290902 AAA
TAFSEA
TAF AMD
KSEA 290902Z 2909/3012 14004KT P6SM BKN060 BKN200
     FM291400 16006KT P6SM SCT050 SCT150 BKN200
     FM291900 19010KT P6SM SCT050 BKN150 OVC200
     FM300100 20012KT P6SM -RA BKN035 OVC060
     FM300400 22013G20KT P6SM -SHRA BKN035
     FM300600 23014G23KT P6SM VCSH BKN035=

USA.gov is the U.S. government's official web portal to all federal, state and local government web resources and services.